Terminal Aerodrome Forecast
Issued by NWS Grand Forks, ND

Home | Current Version | Previous Version | Graphics & Text | Print | Product List | Glossary On
Versions: 1 2 3 4 5 6 7 8 9 10 11 12 13
901
FTUS43 KFGF 211138
TAFGFK
TAF
KGFK 211138Z 2112/2212 14004KT P6SM SCT250
     FM212200 18012KT P6SM FEW250
     FM221100 18005KT P6SM FEW150=

USA.gov is the U.S. government's official web portal to all federal, state and local government web resources and services.